createdAt,value
2023-05-15T00:00:26.417Z,44.79
2023-05-15T00:01:26.393Z,44.31
2023-05-15T00:02:26.436Z,44.79
2023-05-15T00:03:26.524Z,44.79
2023-05-15T00:04:26.467Z,47.53
2023-05-15T00:05:26.562Z,48.98
2023-05-15T00:06:26.402Z,51.72
2023-05-15T00:07:26.363Z,47.37
2023-05-15T00:08:26.374Z,47.05
2023-05-15T00:09:26.347Z,45.76
2023-05-15T00:10:26.322Z,46.73
2023-05-15T00:11:26.337Z,45.28
2023-05-15T00:12:26.337Z,44.79
2023-05-15T00:13:26.324Z,45.60
2023-05-15T00:14:26.308Z,45.44
2023-05-15T00:15:26.549Z,45.12
2023-05-15T00:16:26.338Z,45.92
2023-05-15T00:17:26.313Z,50.43
2023-05-15T00:18:26.272Z,48.50
2023-05-15T00:19:26.263Z,46.73
2023-05-15T00:20:26.270Z,47.21
2023-05-15T00:21:26.260Z,46.89
2023-05-15T00:22:26.259Z,45.76
2023-05-15T00:23:26.241Z,45.28
2023-05-15T00:24:26.269Z,45.92
2023-05-15T00:25:26.392Z,44.31
2023-05-15T00:26:26.220Z,45.12
2023-05-15T00:27:26.241Z,44.96
2023-05-15T00:28:26.221Z,48.50
2023-05-15T00:29:26.196Z,45.12
2023-05-15T00:30:26.193Z,45.28
2023-05-15T00:31:26.232Z,45.76
2023-05-15T00:32:26.192Z,46.89
2023-05-15T00:33:26.197Z,45.92
2023-05-15T00:34:26.176Z,46.89
2023-05-15T00:35:26.367Z,45.28
2023-05-15T00:36:26.169Z,45.12
2023-05-15T00:37:26.143Z,45.28
2023-05-15T00:38:26.168Z,44.96
2023-05-15T00:39:26.162Z,44.79
2023-05-15T00:40:26.148Z,44.79
2023-05-15T00:41:26.134Z,44.96
2023-05-15T00:42:26.104Z,46.08
2023-05-15T00:43:26.118Z,45.92
2023-05-15T00:44:26.117Z,45.76
2023-05-15T00:45:26.352Z,45.92
2023-05-15T00:46:26.112Z,46.57
2023-05-15T00:47:26.133Z,44.79
2023-05-15T00:48:26.101Z,45.28
2023-05-15T00:49:26.063Z,44.63
2023-05-15T00:50:26.084Z,45.60
2023-05-15T00:51:26.060Z,46.25
2023-05-15T00:52:26.059Z,45.76
2023-05-15T00:53:26.076Z,45.76
2023-05-15T00:54:26.038Z,46.73
2023-05-15T00:55:26.182Z,45.92
2023-05-15T00:56:26.017Z,46.41
2023-05-15T00:57:26.027Z,45.28
2023-05-15T00:58:26.017Z,45.60
2023-05-15T00:59:26.003Z,46.25
2023-05-15T01:00:26.007Z,45.44
2023-05-15T01:01:26.058Z,46.73
2023-05-15T01:02:26.041Z,46.25
2023-05-15T01:03:26.030Z,45.12
2023-05-15T01:04:25.959Z,44.31
2023-05-15T01:05:26.275Z,44.96
2023-05-15T01:06:25.960Z,44.79
2023-05-15T01:07:25.968Z,46.89
2023-05-15T01:08:25.966Z,45.60
2023-05-15T01:09:25.933Z,44.96
2023-05-15T01:10:25.921Z,45.76
2023-05-15T01:11:25.930Z,45.92
2023-05-15T01:12:25.924Z,45.60
2023-05-15T01:13:25.961Z,45.28
2023-05-15T01:14:25.905Z,44.96
2023-05-15T01:15:26.119Z,45.60
2023-05-15T01:16:25.902Z,47.86
2023-05-15T01:17:25.884Z,47.70
2023-05-15T01:18:26.056Z,48.82
2023-05-15T01:19:25.963Z,47.05
2023-05-15T01:20:25.855Z,47.37
2023-05-15T01:21:25.877Z,46.73
2023-05-15T01:22:25.852Z,48.34
2023-05-15T01:23:25.852Z,47.86
2023-05-15T01:24:25.836Z,46.57
2023-05-15T01:25:26.092Z,47.37
2023-05-15T01:26:25.836Z,45.60
2023-05-15T01:27:25.814Z,47.70
2023-05-15T01:28:25.808Z,47.37
2023-05-15T01:29:25.821Z,45.60
2023-05-15T01:30:25.804Z,47.05
2023-05-15T01:31:25.900Z,45.44
2023-05-15T01:32:25.913Z,45.76
2023-05-15T01:33:25.777Z,47.53
2023-05-15T01:34:25.756Z,49.95
2023-05-15T01:35:26.020Z,45.12
2023-05-15T01:36:25.752Z,45.60
2023-05-15T01:37:25.752Z,46.57
2023-05-15T01:38:25.724Z,45.28
2023-05-15T01:39:25.735Z,50.76
2023-05-15T01:40:25.719Z,46.73
2023-05-15T01:41:25.711Z,47.37
2023-05-15T01:42:25.712Z,49.15
2023-05-15T01:43:25.697Z,46.89
2023-05-15T01:44:25.706Z,49.79
2023-05-15T01:45:25.976Z,45.60
2023-05-15T01:46:25.733Z,45.12
2023-05-15T01:47:25.710Z,49.79
2023-05-15T01:48:25.662Z,50.11
2023-05-15T01:49:25.654Z,45.92
2023-05-15T01:50:25.645Z,45.28
2023-05-15T01:51:25.653Z,47.37
2023-05-15T01:52:25.676Z,45.60
2023-05-15T01:53:25.663Z,50.11
2023-05-15T01:54:25.627Z,46.57
2023-05-15T01:55:25.822Z,45.60
2023-05-15T01:56:25.637Z,47.21
2023-05-15T01:57:25.628Z,48.18
2023-05-15T01:58:25.598Z,48.98
2023-05-15T01:59:25.593Z,47.86
2023-05-15T02:00:25.586Z,46.08
2023-05-15T02:01:25.625Z,47.86
2023-05-15T02:02:25.678Z,48.34
2023-05-15T02:03:25.701Z,50.11
2023-05-15T02:04:25.558Z,49.47
2023-05-15T02:05:25.891Z,46.89
2023-05-15T02:06:25.539Z,47.70
2023-05-15T02:07:25.565Z,48.34
2023-05-15T02:08:25.550Z,46.73
2023-05-15T02:09:25.540Z,47.21
2023-05-15T02:10:25.506Z,47.70
2023-05-15T02:11:25.504Z,46.73
2023-05-15T02:12:25.500Z,45.76
2023-05-15T02:13:25.494Z,46.25
2023-05-15T02:14:25.524Z,47.05
2023-05-15T02:15:25.733Z,47.70
2023-05-15T02:16:25.514Z,47.05
2023-05-15T02:17:25.504Z,47.21
2023-05-15T02:18:25.462Z,47.53
2023-05-15T02:19:25.486Z,47.37
2023-05-15T02:20:25.477Z,46.57
2023-05-15T02:21:25.513Z,46.89
2023-05-15T02:22:25.480Z,46.73
2023-05-15T02:23:25.692Z,48.98
2023-05-15T02:24:25.415Z,48.66
2023-05-15T02:25:25.779Z,47.86
2023-05-15T02:26:25.416Z,47.86
2023-05-15T02:27:25.412Z,48.18
2023-05-15T02:28:25.419Z,49.95
2023-05-15T02:29:25.396Z,50.60
2023-05-15T02:30:25.371Z,51.56
2023-05-15T02:31:25.423Z,49.47
2023-05-15T02:32:25.410Z,48.50
2023-05-15T02:33:25.354Z,49.15
2023-05-15T02:34:25.362Z,51.72
2023-05-15T02:35:25.536Z,51.72
2023-05-15T02:36:25.358Z,49.95
2023-05-15T02:37:25.346Z,48.66
2023-05-15T02:38:25.320Z,50.27
2023-05-15T02:39:25.658Z,48.66
2023-05-15T02:40:25.314Z,49.31
2023-05-15T02:41:25.309Z,50.76
2023-05-15T02:42:25.297Z,51.72
2023-05-15T02:43:25.284Z,54.46
2023-05-15T02:44:25.309Z,51.88
2023-05-15T02:45:25.470Z,48.98
2023-05-15T02:46:25.753Z,49.63
2023-05-15T02:47:25.325Z,53.33
2023-05-15T02:48:25.254Z,53.17
2023-05-15T02:49:25.259Z,51.24
2023-05-15T02:50:25.242Z,55.59
2023-05-15T02:51:25.253Z,55.43
2023-05-15T02:52:25.235Z,51.88
2023-05-15T02:53:25.215Z,52.85
2023-05-15T02:54:25.245Z,49.95
2023-05-15T02:55:25.341Z,52.05
2023-05-15T02:56:25.246Z,52.21
2023-05-15T02:57:25.195Z,54.79
2023-05-15T02:58:25.181Z,53.01
2023-05-15T02:59:25.181Z,55.27
2023-05-15T03:00:25.175Z,55.11
2023-05-15T03:01:25.223Z,57.04
2023-05-15T03:02:25.170Z,55.43
2023-05-15T03:03:25.154Z,52.37
2023-05-15T03:04:25.164Z,51.88
2023-05-15T03:05:25.479Z,53.82
2023-05-15T03:06:25.133Z,54.46
2023-05-15T03:07:25.124Z,54.79
2023-05-15T03:08:25.116Z,54.79
2023-05-15T03:09:25.105Z,52.85
2023-05-15T03:10:25.123Z,54.14
2023-05-15T03:11:25.089Z,55.11
2023-05-15T03:12:25.086Z,55.27
2023-05-15T03:13:25.093Z,55.27
2023-05-15T03:14:25.094Z,54.95
2023-05-15T03:15:25.353Z,54.30
2023-05-15T03:16:25.145Z,55.27
2023-05-15T03:17:25.075Z,55.75
2023-05-15T03:18:25.040Z,55.59
2023-05-15T03:19:25.059Z,56.07
2023-05-15T03:20:25.040Z,56.72
2023-05-15T03:21:25.040Z,55.91
2023-05-15T03:22:26.015Z,55.27
2023-05-15T03:23:25.009Z,56.40
2023-05-15T03:24:25.004Z,57.69
2023-05-15T03:25:25.255Z,56.40
2023-05-15T03:26:25.028Z,56.40
2023-05-15T03:27:24.980Z,53.50
2023-05-15T03:28:25.005Z,56.40
2023-05-15T03:29:24.976Z,55.91
2023-05-15T03:30:24.961Z,54.62
2023-05-15T03:31:25.130Z,54.95
2023-05-15T03:32:25.035Z,54.62
2023-05-15T03:33:24.976Z,54.79
2023-05-15T03:34:24.962Z,54.46
2023-05-15T03:35:25.246Z,53.17
2023-05-15T03:36:24.927Z,54.79
2023-05-15T03:37:24.921Z,56.56
2023-05-15T03:38:24.911Z,55.59
2023-05-15T03:39:24.921Z,55.91
2023-05-15T03:40:24.894Z,55.27
2023-05-15T03:41:24.921Z,57.52
2023-05-15T03:42:25.336Z,54.46
2023-05-15T03:43:25.056Z,52.69
2023-05-15T03:44:24.875Z,53.98
2023-05-15T03:45:25.114Z,56.72
2023-05-15T03:46:24.909Z,56.72
2023-05-15T03:47:24.874Z,55.91
2023-05-15T03:48:24.865Z,53.33
2023-05-15T03:49:24.828Z,55.27
2023-05-15T03:50:24.925Z,57.04
2023-05-15T03:51:24.821Z,57.52
2023-05-15T03:52:24.847Z,57.04
2023-05-15T03:53:24.850Z,55.75
2023-05-15T03:54:24.829Z,56.40
2023-05-15T03:55:25.067Z,56.88
2023-05-15T03:56:24.792Z,54.95
2023-05-15T03:57:24.804Z,57.52
2023-05-15T03:58:24.787Z,55.27
2023-05-15T03:59:25.819Z,57.52
2023-05-15T04:00:26.048Z,55.43
2023-05-15T04:01:24.764Z,56.72
2023-05-15T04:02:24.802Z,53.33
2023-05-15T04:03:24.984Z,54.79
2023-05-15T04:04:24.773Z,55.11
2023-05-15T04:05:24.909Z,55.91
2023-05-15T04:06:24.725Z,57.04
2023-05-15T04:07:24.729Z,55.75
2023-05-15T04:08:24.723Z,56.88
2023-05-15T04:09:24.711Z,56.88
2023-05-15T04:10:24.909Z,55.27
2023-05-15T04:11:24.689Z,56.88
2023-05-15T04:12:24.686Z,57.04
2023-05-15T04:13:24.693Z,56.88
2023-05-15T04:14:24.670Z,56.88
2023-05-15T04:15:24.888Z,57.52
2023-05-15T04:16:24.672Z,56.40
2023-05-15T04:17:24.666Z,56.07
2023-05-15T04:18:24.675Z,56.40
2023-05-15T04:19:24.656Z,56.40
2023-05-15T04:20:24.662Z,57.20
2023-05-15T04:21:24.618Z,57.85
2023-05-15T04:22:24.611Z,56.72
2023-05-15T04:23:24.596Z,58.01
2023-05-15T04:24:24.619Z,58.01
2023-05-15T04:25:24.716Z,57.85
2023-05-15T04:26:24.604Z,56.24
2023-05-15T04:27:24.646Z,57.69
2023-05-15T04:28:24.556Z,57.85
2023-05-15T04:29:24.586Z,58.01
2023-05-15T04:30:24.562Z,56.72
2023-05-15T04:31:24.558Z,57.52
2023-05-15T04:32:24.603Z,58.33
2023-05-15T04:33:24.583Z,57.20
2023-05-15T04:34:24.524Z,57.69
2023-05-15T04:35:24.773Z,58.01
2023-05-15T04:36:24.504Z,58.17
2023-05-15T04:37:24.505Z,58.65
2023-05-15T04:38:24.492Z,58.65
2023-05-15T04:39:24.500Z,59.78
2023-05-15T04:40:24.494Z,56.88
2023-05-15T04:41:24.465Z,58.33
2023-05-15T04:42:24.466Z,59.78
2023-05-15T04:43:24.461Z,58.17
2023-05-15T04:44:24.460Z,58.49
2023-05-15T04:45:24.565Z,58.33
2023-05-15T04:46:24.572Z,58.65
2023-05-15T04:47:24.449Z,58.97
2023-05-15T04:48:24.446Z,58.81
2023-05-15T04:49:24.410Z,58.65
2023-05-15T04:50:24.573Z,57.36
2023-05-15T04:51:24.428Z,57.85
2023-05-15T04:52:24.413Z,56.72
2023-05-15T04:53:24.389Z,58.01
2023-05-15T04:54:24.419Z,56.88
2023-05-15T04:55:24.538Z,57.52
2023-05-15T04:56:24.371Z,56.56
2023-05-15T04:57:24.395Z,56.56
2023-05-15T04:58:24.367Z,56.72
2023-05-15T04:59:24.379Z,55.75
2023-05-15T05:00:24.485Z,55.75
2023-05-15T05:01:24.357Z,56.88
2023-05-15T05:02:24.406Z,57.04
2023-05-15T05:03:24.382Z,55.91
2023-05-15T05:04:24.312Z,55.27
2023-05-15T05:05:24.523Z,56.88
2023-05-15T05:06:24.313Z,52.85
2023-05-15T05:07:24.300Z,52.05
2023-05-15T05:08:24.306Z,52.05
2023-05-15T05:09:24.288Z,53.98
2023-05-15T05:10:24.283Z,53.98
2023-05-15T05:11:24.315Z,54.62
2023-05-15T05:12:25.406Z,56.40
2023-05-15T05:13:24.268Z,56.72
2023-05-15T05:14:24.256Z,55.11
2023-05-15T05:15:24.399Z,55.75
2023-05-15T05:16:24.313Z,54.79
2023-05-15T05:17:24.262Z,55.75
2023-05-15T05:18:24.238Z,53.82
2023-05-15T05:19:24.222Z,54.62
2023-05-15T05:20:24.220Z,54.14
2023-05-15T05:21:24.209Z,53.33
2023-05-15T05:22:24.206Z,54.14
2023-05-15T05:23:24.192Z,54.95
2023-05-15T05:24:24.196Z,53.33
2023-05-15T05:25:24.415Z,54.14
2023-05-15T05:26:24.171Z,55.43
2023-05-15T05:27:24.168Z,54.30
2023-05-15T05:28:24.168Z,53.82
2023-05-15T05:29:24.161Z,53.17
2023-05-15T05:30:24.155Z,55.91
2023-05-15T05:31:24.175Z,53.98
2023-05-15T05:32:24.165Z,54.14
2023-05-15T05:33:24.134Z,53.33
2023-05-15T05:34:24.164Z,54.79
2023-05-15T05:35:24.430Z,54.62
2023-05-15T05:36:24.119Z,53.17
2023-05-15T05:37:24.118Z,54.95
2023-05-15T05:38:24.091Z,54.95
2023-05-15T05:39:24.118Z,54.95
2023-05-15T05:40:24.102Z,55.91
2023-05-15T05:41:24.093Z,54.79
2023-05-15T05:42:24.114Z,54.14
2023-05-15T05:43:24.059Z,56.72
2023-05-15T05:44:24.077Z,54.79
2023-05-15T05:45:24.152Z,54.62
2023-05-15T05:46:24.088Z,55.43
2023-05-15T05:47:24.077Z,54.79
2023-05-15T05:48:24.028Z,55.59
2023-05-15T05:49:24.036Z,56.07
2023-05-15T05:50:24.028Z,55.91
2023-05-15T05:51:24.009Z,55.59
2023-05-15T05:52:24.017Z,55.75
2023-05-15T05:53:24.009Z,56.88
2023-05-15T05:54:24.004Z,56.88
2023-05-15T05:55:24.189Z,53.82
2023-05-15T05:56:24.082Z,54.79
2023-05-15T05:57:23.972Z,56.88
2023-05-15T05:58:26.027Z,58.01
2023-05-15T05:59:24.962Z,55.59
2023-05-15T06:00:23.973Z,56.72
2023-05-15T06:01:23.965Z,55.27
2023-05-15T06:02:24.016Z,55.75
2023-05-15T06:03:24.009Z,54.30
2023-05-15T06:04:24.022Z,56.24
2023-05-15T06:05:24.110Z,56.56
2023-05-15T06:06:24.950Z,56.07
2023-05-15T06:07:23.913Z,56.72
2023-05-15T06:08:23.899Z,55.91
2023-05-15T06:09:23.909Z,55.27
2023-05-15T06:10:24.120Z,54.14
2023-05-15T06:11:25.437Z,55.27
2023-05-15T06:12:24.903Z,55.59
2023-05-15T06:13:24.353Z,55.27
2023-05-15T06:14:23.869Z,56.40
2023-05-15T06:15:24.130Z,56.56
2023-05-15T06:16:23.895Z,56.88
2023-05-15T06:17:23.873Z,54.46
2023-05-15T06:18:23.852Z,53.82
2023-05-15T06:19:23.898Z,53.66
2023-05-15T06:20:24.071Z,54.79
2023-05-15T06:21:23.829Z,55.59
2023-05-15T06:22:23.847Z,54.46
2023-05-15T06:23:24.510Z,55.43
2023-05-15T06:24:24.821Z,54.30
2023-05-15T06:25:23.822Z,54.79
2023-05-15T06:26:23.805Z,53.82
2023-05-15T06:27:23.796Z,52.85
2023-05-15T06:28:23.778Z,51.88
2023-05-15T06:29:23.806Z,53.33
2023-05-15T06:30:23.884Z,53.50
2023-05-15T06:31:23.851Z,51.24
2023-05-15T06:32:23.802Z,53.33
2023-05-15T06:33:23.748Z,51.72
2023-05-15T06:34:23.749Z,52.85
2023-05-15T06:35:23.733Z,52.69
2023-05-15T06:36:23.742Z,53.01
2023-05-15T06:37:23.711Z,52.53
2023-05-15T06:38:24.702Z,53.17
2023-05-15T06:39:23.708Z,51.88
2023-05-15T06:40:23.841Z,51.56
2023-05-15T06:41:23.707Z,52.69
2023-05-15T06:42:23.673Z,50.76
2023-05-15T06:43:24.655Z,51.56
2023-05-15T06:44:23.761Z,53.66
2023-05-15T06:45:24.930Z,53.98
2023-05-15T06:46:23.666Z,53.82
2023-05-15T06:47:23.675Z,55.27
2023-05-15T06:48:23.688Z,53.98
2023-05-15T06:49:23.616Z,53.33
2023-05-15T06:50:23.611Z,53.33
2023-05-15T06:51:23.617Z,53.66
2023-05-15T06:52:23.602Z,53.82
2023-05-15T06:53:23.615Z,52.37
2023-05-15T06:54:23.683Z,54.30
2023-05-15T06:55:23.732Z,54.62
2023-05-15T06:56:23.562Z,55.59
2023-05-15T06:57:23.563Z,54.30
2023-05-15T06:58:23.562Z,52.05
2023-05-15T06:59:23.570Z,50.92
2023-05-15T07:00:23.547Z,51.40
2023-05-15T07:01:23.578Z,53.33
2023-05-15T07:02:23.634Z,50.11
2023-05-15T07:03:23.523Z,48.66
2023-05-15T07:04:23.649Z,51.40
2023-05-15T07:05:23.745Z,51.24
2023-05-15T07:06:23.498Z,52.37
2023-05-15T07:07:23.520Z,52.53
2023-05-15T07:08:23.487Z,50.60
2023-05-15T07:09:23.488Z,51.88
2023-05-15T07:10:23.892Z,50.11
2023-05-15T07:11:23.461Z,48.98
2023-05-15T07:12:23.453Z,48.98
2023-05-15T07:13:23.471Z,51.08
2023-05-15T07:14:23.448Z,51.72
2023-05-15T07:15:23.460Z,51.72
2023-05-15T07:16:23.442Z,51.56
2023-05-15T07:17:23.479Z,51.88
2023-05-15T07:18:23.465Z,52.21
2023-05-15T07:19:23.442Z,52.05
2023-05-15T07:20:24.765Z,52.53
2023-05-15T07:21:23.414Z,52.85
2023-05-15T07:22:23.396Z,49.47
2023-05-15T07:23:23.423Z,49.63
2023-05-15T07:24:23.397Z,51.24
2023-05-15T07:25:23.785Z,50.60
2023-05-15T07:26:32.538Z,50.60
2023-05-15T07:27:25.380Z,51.24
2023-05-15T07:28:23.359Z,50.43
2023-05-15T07:29:23.359Z,52.05
2023-05-15T07:30:23.541Z,52.05
2023-05-15T07:31:23.368Z,52.53
2023-05-15T07:32:23.383Z,51.88
2023-05-15T07:33:23.314Z,53.82
2023-05-15T07:34:23.330Z,51.40
2023-05-15T07:35:23.551Z,52.05
2023-05-15T07:36:23.309Z,53.33
2023-05-15T07:37:23.292Z,51.72
2023-05-15T07:38:23.344Z,50.11
2023-05-15T07:39:23.311Z,50.76
2023-05-15T07:40:23.285Z,50.60
2023-05-15T07:41:23.280Z,52.85
2023-05-15T07:42:23.272Z,50.76
2023-05-15T07:43:23.245Z,49.47
2023-05-15T07:44:23.262Z,51.72
2023-05-15T07:45:23.508Z,50.60
2023-05-15T07:46:23.285Z,51.56
2023-05-15T07:47:23.246Z,49.79
2023-05-15T07:48:23.239Z,52.05
2023-05-15T07:49:23.228Z,51.08
2023-05-15T07:50:23.279Z,49.63
2023-05-15T07:51:24.205Z,51.56
2023-05-15T07:52:23.212Z,51.24
2023-05-15T07:53:23.193Z,51.88
2023-05-15T07:54:23.217Z,49.47
2023-05-15T07:55:23.269Z,51.40
2023-05-15T07:56:23.226Z,51.56
2023-05-15T07:57:23.157Z,49.79
2023-05-15T07:58:23.153Z,49.63
2023-05-15T07:59:23.193Z,50.11
2023-05-15T08:00:23.334Z,51.56
2023-05-15T08:01:23.151Z,50.43
2023-05-15T08:02:23.185Z,49.79
2023-05-15T08:03:23.249Z,50.76
2023-05-15T08:04:23.136Z,48.66
2023-05-15T08:05:23.241Z,50.11
2023-05-15T08:06:23.098Z,52.37
2023-05-15T08:07:23.099Z,52.05
2023-05-15T08:08:23.088Z,49.15
2023-05-15T08:09:23.085Z,52.85
2023-05-15T08:10:23.099Z,50.60
2023-05-15T08:11:23.096Z,51.24
2023-05-15T08:12:23.097Z,52.05
2023-05-15T08:13:23.055Z,49.31
2023-05-15T08:14:23.114Z,49.63
2023-05-15T08:15:23.142Z,50.76
2023-05-15T08:16:23.068Z,49.31
2023-05-15T08:17:23.155Z,49.63
2023-05-15T08:18:23.031Z,50.76
2023-05-15T08:19:23.080Z,45.28
2023-05-15T08:20:23.064Z,49.63
2023-05-15T08:21:22.998Z,51.08
2023-05-15T08:22:23.013Z,52.69
2023-05-15T08:23:23.004Z,53.82
2023-05-15T08:24:22.998Z,52.05
2023-05-15T08:25:23.198Z,50.27
2023-05-15T08:26:22.970Z,49.47
2023-05-15T08:27:22.993Z,52.05
2023-05-15T08:28:22.954Z,49.47
2023-05-15T08:29:22.945Z,48.82
2023-05-15T08:30:22.949Z,51.72
2023-05-15T08:31:22.950Z,49.31
2023-05-15T08:32:23.008Z,48.82
2023-05-15T08:33:22.947Z,49.95
2023-05-15T08:34:22.914Z,52.05
2023-05-15T08:35:23.097Z,51.24
2023-05-15T08:36:23.167Z,49.15
2023-05-15T08:37:22.901Z,49.15
2023-05-15T08:38:22.910Z,50.27
2023-05-15T08:39:22.893Z,50.60
2023-05-15T08:40:34.483Z,48.50
2023-05-15T08:41:38.743Z,52.21
2023-05-15T08:42:24.877Z,47.86
2023-05-15T08:43:22.862Z,49.95
2023-05-15T08:44:22.857Z,47.70
2023-05-15T08:45:22.939Z,49.15
2023-05-15T08:46:23.018Z,50.92
2023-05-15T08:47:22.839Z,49.95
2023-05-15T08:48:22.961Z,51.56
2023-05-15T08:49:23.814Z,49.79
2023-05-15T08:50:22.800Z,51.56
2023-05-15T08:51:22.853Z,50.11
2023-05-15T08:52:22.801Z,49.15
2023-05-15T08:53:22.800Z,49.31
2023-05-15T08:54:22.800Z,51.40
2023-05-15T08:55:22.927Z,47.53
2023-05-15T08:56:22.776Z,48.34
2023-05-15T08:57:22.785Z,48.02
2023-05-15T08:58:22.764Z,48.02
2023-05-15T08:59:22.767Z,47.86
2023-05-15T09:00:22.770Z,45.28
2023-05-15T09:01:22.876Z,45.60
2023-05-15T09:02:22.842Z,47.86
2023-05-15T09:03:22.808Z,46.41
2023-05-15T09:04:22.728Z,47.86
2023-05-15T09:05:22.769Z,48.34
2023-05-15T09:06:22.709Z,45.92
2023-05-15T09:07:22.736Z,44.63
2023-05-15T09:08:22.699Z,49.15
2023-05-15T09:09:22.706Z,47.05
2023-05-15T09:10:22.703Z,43.02
2023-05-15T09:11:22.684Z,46.41
2023-05-15T09:12:22.675Z,47.05
2023-05-15T09:13:22.787Z,44.96
2023-05-15T09:14:22.683Z,46.41
2023-05-15T09:15:22.708Z,46.73
2023-05-15T09:16:22.709Z,48.18
2023-05-15T09:17:22.682Z,47.86
2023-05-15T09:18:22.676Z,48.18
2023-05-15T09:19:22.752Z,48.02
2023-05-15T09:20:22.630Z,49.63
2023-05-15T09:21:22.613Z,45.28
2023-05-15T09:22:22.601Z,46.41
2023-05-15T09:23:22.614Z,47.70
2023-05-15T09:24:22.603Z,47.53
2023-05-15T09:25:22.934Z,47.21
2023-05-15T09:26:22.624Z,46.08
2023-05-15T09:27:22.585Z,45.28
2023-05-15T09:28:22.590Z,45.76
2023-05-15T09:29:22.587Z,47.05
2023-05-15T09:30:22.566Z,44.96
2023-05-15T09:31:22.589Z,44.31
2023-05-15T09:32:22.708Z,44.96
2023-05-15T09:33:22.531Z,44.79
2023-05-15T09:34:22.627Z,46.89
2023-05-15T09:35:22.799Z,45.12
2023-05-15T09:36:22.543Z,48.66
2023-05-15T09:37:22.514Z,45.76
2023-05-15T09:38:22.509Z,47.70
2023-05-15T09:39:22.518Z,48.82
2023-05-15T09:40:22.512Z,48.98
2023-05-15T09:41:22.492Z,48.02
2023-05-15T09:42:22.479Z,49.47
2023-05-15T09:43:22.479Z,51.88
2023-05-15T09:44:22.476Z,48.50
2023-05-15T09:45:22.467Z,46.57
2023-05-15T09:46:22.530Z,48.50
2023-05-15T09:47:25.396Z,47.37
2023-05-15T09:48:28.291Z,48.18
2023-05-15T09:49:24.776Z,48.82
2023-05-15T09:50:24.327Z,47.37
2023-05-15T09:51:23.326Z,49.63
2023-05-15T09:52:22.404Z,48.66
2023-05-15T09:53:22.407Z,49.79
2023-05-15T09:54:22.415Z,48.02
2023-05-15T09:55:22.440Z,48.34
2023-05-15T09:56:22.404Z,48.98
2023-05-15T09:57:22.408Z,47.70
2023-05-15T09:58:22.406Z,44.79
2023-05-15T09:59:22.388Z,47.37
2023-05-15T10:00:22.466Z,49.79
2023-05-15T10:01:22.404Z,47.05
2023-05-15T10:02:22.381Z,46.89
2023-05-15T10:03:22.391Z,46.89
2023-05-15T10:04:22.341Z,49.15
2023-05-15T10:05:35.295Z,46.73
2023-05-15T10:06:24.420Z,48.66
2023-05-15T10:07:22.326Z,51.88
2023-05-15T10:08:22.330Z,50.60
2023-05-15T10:09:22.333Z,48.82
2023-05-15T10:10:22.334Z,50.92
2023-05-15T10:11:22.303Z,49.79
2023-05-15T10:12:22.296Z,48.66
2023-05-15T10:13:22.288Z,48.82
2023-05-15T10:14:22.280Z,47.21
2023-05-15T10:15:22.294Z,48.82
2023-05-15T10:16:22.349Z,47.37
2023-05-15T10:17:22.313Z,48.66
2023-05-15T10:18:22.250Z,49.31
2023-05-15T10:19:22.324Z,48.98
2023-05-15T10:20:22.246Z,49.15
2023-05-15T10:21:23.225Z,50.11
2023-05-15T10:22:23.264Z,50.43
2023-05-15T10:23:22.222Z,49.79
2023-05-15T10:24:22.215Z,50.43
2023-05-15T10:25:22.237Z,48.66
2023-05-15T10:26:22.191Z,49.63
2023-05-15T10:27:22.186Z,51.24
2023-05-15T10:28:22.188Z,50.27
2023-05-15T10:29:22.173Z,49.63
2023-05-15T10:30:22.244Z,50.60
2023-05-15T10:31:22.205Z,51.56
2023-05-15T10:32:22.168Z,49.63
2023-05-15T10:33:22.162Z,49.31
2023-05-15T10:34:22.140Z,51.08
2023-05-15T10:35:22.137Z,49.63
2023-05-15T10:36:22.148Z,51.08
2023-05-15T10:37:22.118Z,50.92
2023-05-15T10:38:22.126Z,48.34
2023-05-15T10:39:22.134Z,52.37
2023-05-15T10:40:22.147Z,51.08
2023-05-15T10:41:22.131Z,51.40
2023-05-15T10:42:22.098Z,55.27
2023-05-15T10:43:22.074Z,52.85
2023-05-15T10:44:22.075Z,52.21
2023-05-15T10:45:22.059Z,49.95
2023-05-15T10:46:22.108Z,48.50
2023-05-15T10:47:22.205Z,47.86
2023-05-15T10:48:22.050Z,47.21
2023-05-15T10:49:22.055Z,47.21
2023-05-15T10:50:22.067Z,50.43
2023-05-15T10:51:22.052Z,46.89
2023-05-15T10:52:22.026Z,47.37
2023-05-15T10:53:22.042Z,47.70
2023-05-15T10:54:22.008Z,48.34
2023-05-15T10:55:22.010Z,48.98
2023-05-15T10:56:22.039Z,48.82
2023-05-15T10:57:22.018Z,48.66
2023-05-15T10:58:21.982Z,48.66
2023-05-15T10:59:21.974Z,51.88
2023-05-15T11:00:21.976Z,48.18
2023-05-15T11:01:22.013Z,49.15
2023-05-15T11:02:21.964Z,48.34
2023-05-15T11:03:22.126Z,48.50
2023-05-15T11:04:21.962Z,48.98
2023-05-15T11:05:21.934Z,50.92
2023-05-15T11:06:21.931Z,52.21
2023-05-15T11:07:21.957Z,51.08
2023-05-15T11:08:21.914Z,50.27
2023-05-15T11:09:21.989Z,52.21
2023-05-15T11:10:21.925Z,53.50
2023-05-15T11:11:21.910Z,51.72
2023-05-15T11:12:21.912Z,53.98
2023-05-15T11:13:21.887Z,52.69
2023-05-15T11:14:22.886Z,54.14
2023-05-15T11:15:21.904Z,53.82
2023-05-15T11:16:21.875Z,52.69
2023-05-15T11:17:21.882Z,49.95
2023-05-15T11:18:21.850Z,49.95
2023-05-15T11:19:21.849Z,52.69
2023-05-15T11:20:21.853Z,52.37
2023-05-15T11:21:21.829Z,52.05
2023-05-15T11:22:21.849Z,49.79
2023-05-15T11:23:21.822Z,52.21
2023-05-15T11:24:21.809Z,52.05
2023-05-15T11:25:21.819Z,52.37
2023-05-15T11:26:21.802Z,51.88
2023-05-15T11:27:21.810Z,51.24
2023-05-15T11:28:21.792Z,49.95
2023-05-15T11:29:22.797Z,51.56
2023-05-15T11:30:21.800Z,51.24
2023-05-15T11:31:21.817Z,48.50
2023-05-15T11:32:21.790Z,49.15
2023-05-15T11:33:21.765Z,49.63
2023-05-15T11:34:21.759Z,46.57
2023-05-15T11:35:21.786Z,49.79
2023-05-15T11:36:21.765Z,50.92
2023-05-15T11:37:21.748Z,49.31
2023-05-15T11:38:21.734Z,48.34
2023-05-15T11:39:21.740Z,50.60
2023-05-15T11:40:21.715Z,48.34
2023-05-15T11:41:21.811Z,47.86
2023-05-15T11:42:21.695Z,49.79
2023-05-15T11:43:21.695Z,49.31
2023-05-15T11:44:21.681Z,47.21
2023-05-15T11:45:21.686Z,46.25
2023-05-15T11:46:21.729Z,46.57
2023-05-15T11:47:21.683Z,46.57
2023-05-15T11:48:21.687Z,45.92
2023-05-15T11:49:21.691Z,44.79
2023-05-15T11:50:21.651Z,46.57
2023-05-15T11:51:21.695Z,48.82
2023-05-15T11:52:21.705Z,47.21
2023-05-15T11:53:21.638Z,49.63
2023-05-15T11:54:21.632Z,48.82
2023-05-15T11:55:21.623Z,49.15
2023-05-15T11:56:21.617Z,49.15
2023-05-15T11:57:21.604Z,47.37
2023-05-15T11:58:21.624Z,48.98
2023-05-15T11:59:21.610Z,47.05
2023-05-15T12:00:21.583Z,47.86
2023-05-15T12:01:21.588Z,47.70
2023-05-15T12:02:21.594Z,47.05
2023-05-15T12:03:21.723Z,48.18
2023-05-15T12:04:21.824Z,47.86
2023-05-15T12:05:21.537Z,44.79
2023-05-15T12:06:21.554Z,51.40
2023-05-15T12:07:21.548Z,48.02
2023-05-15T12:08:21.539Z,49.47
2023-05-15T12:09:21.534Z,47.70
2023-05-15T12:10:21.525Z,47.37
2023-05-15T12:11:21.526Z,49.95
2023-05-15T12:12:21.510Z,46.08
2023-05-15T12:13:21.501Z,47.21
2023-05-15T12:14:21.490Z,47.05
2023-05-15T12:15:21.505Z,48.18
2023-05-15T12:16:21.510Z,46.25
2023-05-15T12:17:21.489Z,48.82
2023-05-15T12:18:21.466Z,51.40
2023-05-15T12:19:21.500Z,48.66
2023-05-15T12:20:21.442Z,48.02
2023-05-15T12:21:21.480Z,48.18
2023-05-15T12:22:21.447Z,46.73
2023-05-15T12:23:21.441Z,48.02
2023-05-15T12:24:21.443Z,48.66
2023-05-15T12:25:21.451Z,44.79
2023-05-15T12:26:21.426Z,48.66
2023-05-15T12:27:21.413Z,48.02
2023-05-15T12:28:21.413Z,48.66
2023-05-15T12:29:21.414Z,48.66
2023-05-15T12:30:21.399Z,48.50
2023-05-15T12:31:21.435Z,46.41
2023-05-15T12:32:21.464Z,48.02
2023-05-15T12:33:21.377Z,49.31
2023-05-15T12:34:21.387Z,48.50
2023-05-15T12:35:21.362Z,45.76
2023-05-15T12:36:21.353Z,47.86
2023-05-15T12:37:21.348Z,49.79
2023-05-15T12:38:21.365Z,45.60
2023-05-15T12:39:21.345Z,46.89
2023-05-15T12:40:21.333Z,46.89
2023-05-15T12:41:21.343Z,45.92
2023-05-15T12:42:21.329Z,48.02
2023-05-15T12:43:21.301Z,47.05
2023-05-15T12:44:21.324Z,47.53
2023-05-15T12:45:21.298Z,44.79
2023-05-15T12:46:21.319Z,44.47
2023-05-15T12:47:21.288Z,43.99
2023-05-15T12:48:21.279Z,46.25
2023-05-15T12:49:21.283Z,44.79
2023-05-15T12:50:21.293Z,46.25
2023-05-15T12:51:21.264Z,46.25
2023-05-15T12:52:21.423Z,47.21